createdAt,value
2018-09-27T00:00:16.443Z,1026.06
2018-09-27T00:01:16.404Z,1026.10
2018-09-27T00:02:16.380Z,1026.05
2018-09-27T00:03:16.315Z,1026.12
2018-09-27T00:04:26.653Z,1026.14
2018-09-27T00:05:16.267Z,1026.14
2018-09-27T00:06:16.227Z,1026.20
2018-09-27T00:07:16.232Z,1026.18
2018-09-27T00:08:16.097Z,1026.18
2018-09-27T00:09:16.059Z,1026.16
2018-09-27T00:10:16.014Z,1026.15
2018-09-27T00:11:15.976Z,1026.15
2018-09-27T00:12:15.935Z,1026.10
2018-09-27T00:13:15.921Z,1026.07
2018-09-27T00:14:15.868Z,1026.06
2018-09-27T00:15:15.815Z,1026.05
2018-09-27T00:16:15.774Z,1026.09
2018-09-27T00:17:15.724Z,1026.08
2018-09-27T00:18:15.739Z,1026.10
2018-09-27T00:19:15.645Z,1026.14
2018-09-27T00:20:15.632Z,1026.11
2018-09-27T00:21:15.557Z,1026.12
2018-09-27T00:22:15.513Z,1026.09
2018-09-27T00:23:15.500Z,1026.12
2018-09-27T00:24:15.454Z,1026.08
2018-09-27T00:25:15.391Z,1026.08
2018-09-27T00:26:15.343Z,1026.08
2018-09-27T00:27:15.305Z,1026.09
2018-09-27T00:28:15.298Z,1026.11
2018-09-27T00:29:15.247Z,1026.09
2018-09-27T00:30:15.184Z,1026.11
2018-09-27T00:31:15.138Z,1026.11
2018-09-27T00:32:15.132Z,1026.11
2018-09-27T00:33:15.060Z,1026.10
2018-09-27T00:34:15.037Z,1026.10
2018-09-27T00:35:14.962Z,1026.12
2018-09-27T00:36:14.941Z,1026.10
2018-09-27T00:37:14.892Z,1026.11
2018-09-27T00:38:14.857Z,1026.11
2018-09-27T00:39:14.820Z,1026.13
2018-09-27T00:40:14.783Z,1026.15
2018-09-27T00:41:14.745Z,1026.14
2018-09-27T00:42:14.698Z,1026.11
2018-09-27T00:43:14.632Z,1026.08
2018-09-27T00:44:14.623Z,1026.09
2018-09-27T00:45:14.563Z,1026.10
2018-09-27T00:46:14.520Z,1026.09
2018-09-27T00:47:14.474Z,1026.12
2018-09-27T00:48:14.419Z,1026.14
2018-09-27T00:49:14.389Z,1026.16
2018-09-27T00:50:14.365Z,1026.15
2018-09-27T00:51:14.297Z,1026.15
2018-09-27T00:52:14.269Z,1026.16
2018-09-27T00:53:14.237Z,1026.18
2018-09-27T00:54:14.178Z,1026.13
2018-09-27T00:55:14.163Z,1026.12
2018-09-27T00:56:14.087Z,1026.12
2018-09-27T00:57:14.081Z,1026.09
2018-09-27T00:58:13.998Z,1026.10
2018-09-27T00:59:13.964Z,1026.08
2018-09-27T01:00:13.942Z,1026.08
2018-09-27T01:01:13.924Z,1026.08
2018-09-27T01:02:13.861Z,1026.08
2018-09-27T01:03:13.813Z,1026.10
2018-09-27T01:04:13.796Z,1026.09
2018-09-27T01:05:13.734Z,1026.08
2018-09-27T01:06:13.659Z,1026.10
2018-09-27T01:07:13.647Z,1026.08
2018-09-27T01:08:13.590Z,1026.07
2018-09-27T01:09:13.560Z,1026.07
2018-09-27T01:10:13.492Z,1026.06
2018-09-27T01:11:13.464Z,1026.06
2018-09-27T01:12:13.475Z,1026.06
2018-09-27T01:13:13.371Z,1026.06
2018-09-27T01:14:13.332Z,1026.07
2018-09-27T01:15:13.296Z,1026.07
2018-09-27T01:16:13.256Z,1026.08
2018-09-27T01:17:13.206Z,1026.06
2018-09-27T01:18:13.204Z,1026.08
2018-09-27T01:19:13.122Z,1026.06
2018-09-27T01:20:13.112Z,1026.05
2018-09-27T01:21:13.027Z,1026.03
2018-09-27T01:22:13.015Z,1025.99
2018-09-27T01:23:12.982Z,1025.99
2018-09-27T01:24:12.926Z,1026.02
2018-09-27T01:25:12.872Z,1025.98
2018-09-27T01:26:12.834Z,1026.00
2018-09-27T01:27:12.780Z,1026.01
2018-09-27T01:28:12.745Z,1025.97
2018-09-27T01:29:12.754Z,1025.99
2018-09-27T01:30:12.673Z,1025.94
2018-09-27T01:31:12.610Z,1025.94
2018-09-27T01:32:12.585Z,1025.95
2018-09-27T01:33:12.523Z,1025.93
2018-09-27T01:34:12.532Z,1025.93
2018-09-27T01:35:12.455Z,1025.92
2018-09-27T01:36:12.418Z,1025.89
2018-09-27T01:37:12.384Z,1025.90
2018-09-27T01:38:12.315Z,1025.90
2018-09-27T01:39:12.319Z,1025.88
2018-09-27T01:40:12.246Z,1025.89
2018-09-27T01:41:12.188Z,1025.90
2018-09-27T01:42:12.193Z,1025.86
2018-09-27T01:43:12.128Z,1025.89
2018-09-27T01:44:12.084Z,1025.87
2018-09-27T01:45:12.052Z,1025.89
2018-09-27T01:46:12.039Z,1025.87
2018-09-27T01:47:11.997Z,1025.87
2018-09-27T01:48:11.904Z,1025.84
2018-09-27T01:49:11.935Z,1025.87
2018-09-27T01:50:11.816Z,1025.87
2018-09-27T01:51:11.776Z,1025.92
2018-09-27T01:52:11.746Z,1025.89
2018-09-27T01:53:11.685Z,1025.87
2018-09-27T01:54:11.645Z,1025.90
2018-09-27T01:55:11.676Z,1025.87
2018-09-27T01:56:11.563Z,1025.87
2018-09-27T01:57:11.555Z,1025.85
2018-09-27T01:58:11.482Z,1025.85
2018-09-27T01:59:11.459Z,1025.84
2018-09-27T02:00:11.395Z,1025.82
2018-09-27T02:01:11.413Z,1025.84
2018-09-27T02:02:11.308Z,1025.81
2018-09-27T02:03:11.281Z,1025.83
2018-09-27T02:04:11.232Z,1025.78
2018-09-27T02:05:11.218Z,1025.75
2018-09-27T02:06:11.175Z,1025.72
2018-09-27T02:07:11.126Z,1025.73
2018-09-27T02:08:11.057Z,1025.71
2018-09-27T02:09:11.035Z,1025.68
2018-09-27T02:10:10.979Z,1025.68
2018-09-27T02:11:10.960Z,1025.66
2018-09-27T02:12:10.923Z,1025.67
2018-09-27T02:13:10.847Z,1025.63
2018-09-27T02:14:10.806Z,1025.65
2018-09-27T02:15:10.760Z,1025.62
2018-09-27T02:16:10.753Z,1025.65
2018-09-27T02:17:10.685Z,1025.64
2018-09-27T02:18:10.669Z,1025.60
2018-09-27T02:19:10.603Z,1025.61
2018-09-27T02:20:10.560Z,1025.61
2018-09-27T02:21:10.538Z,1025.55
2018-09-27T02:22:10.473Z,1025.56
2018-09-27T02:23:10.430Z,1025.52
2018-09-27T02:24:10.397Z,1025.50
2018-09-27T02:25:10.344Z,1025.48
2018-09-27T02:26:10.340Z,1025.48
2018-09-27T02:27:10.275Z,1025.49
2018-09-27T02:28:10.223Z,1025.48
2018-09-27T02:29:10.176Z,1025.45
2018-09-27T02:30:10.155Z,1025.48
2018-09-27T02:31:10.140Z,1025.47
2018-09-27T02:32:10.076Z,1025.47
2018-09-27T02:33:10.014Z,1025.44
2018-09-27T02:34:09.982Z,1025.42
2018-09-27T02:35:09.935Z,1025.44
2018-09-27T02:36:09.897Z,1025.47
2018-09-27T02:37:09.875Z,1025.45
2018-09-27T02:38:09.798Z,1025.46
2018-09-27T02:39:09.761Z,1025.44
2018-09-27T02:40:09.708Z,1025.50
2018-09-27T02:41:09.703Z,1025.45
2018-09-27T02:42:09.637Z,1025.41
2018-09-27T02:43:09.645Z,1025.46
2018-09-27T02:44:09.572Z,1025.43
2018-09-27T02:45:09.505Z,1025.44
2018-09-27T02:46:09.450Z,1025.42
2018-09-27T02:47:09.409Z,1025.41
2018-09-27T02:48:09.546Z,1025.43
2018-09-27T02:49:20.182Z,1025.41
2018-09-27T02:50:09.365Z,1025.44
2018-09-27T02:51:09.281Z,1025.41
2018-09-27T02:52:09.202Z,1025.38
2018-09-27T02:53:09.181Z,1025.34
2018-09-27T02:54:09.147Z,1025.36
2018-09-27T02:55:09.080Z,1025.33
2018-09-27T02:56:09.089Z,1025.34
2018-09-27T02:57:08.992Z,1025.34
2018-09-27T02:58:08.950Z,1025.38
2018-09-27T02:59:08.972Z,1025.34
2018-09-27T03:00:08.906Z,1025.39
2018-09-27T03:01:08.853Z,1025.36
2018-09-27T03:02:08.804Z,1025.34
2018-09-27T03:03:08.741Z,1025.34
2018-09-27T03:04:08.755Z,1025.36
2018-09-27T03:05:08.672Z,1025.37
2018-09-27T03:06:08.637Z,1025.43
2018-09-27T03:07:08.598Z,1025.39
2018-09-27T03:08:08.555Z,1025.42
2018-09-27T03:09:08.538Z,1025.42
2018-09-27T03:10:08.449Z,1025.38
2018-09-27T03:11:08.406Z,1025.39
2018-09-27T03:12:08.371Z,1025.35
2018-09-27T03:13:08.350Z,1025.39
2018-09-27T03:14:08.290Z,1025.31
2018-09-27T03:15:08.276Z,1025.30
2018-09-27T03:16:08.223Z,1025.31
2018-09-27T03:17:08.152Z,1025.28
2018-09-27T03:18:08.132Z,1025.23
2018-09-27T03:19:08.096Z,1025.27
2018-09-27T03:20:08.061Z,1025.20
2018-09-27T03:21:08.051Z,1025.22
2018-09-27T03:22:07.951Z,1025.25
2018-09-27T03:23:07.900Z,1025.24
2018-09-27T03:24:07.862Z,1025.22
2018-09-27T03:25:07.865Z,1025.19
2018-09-27T03:26:07.805Z,1025.16
2018-09-27T03:27:07.771Z,1025.16
2018-09-27T03:28:07.707Z,1025.14
2018-09-27T03:29:07.651Z,1025.11
2018-09-27T03:30:07.704Z,1025.09
2018-09-27T03:31:07.554Z,1025.08
2018-09-27T03:32:07.527Z,1025.09
2018-09-27T03:33:07.514Z,1025.07
2018-09-27T03:34:07.458Z,1025.05
2018-09-27T03:35:07.412Z,1025.02
2018-09-27T03:36:07.351Z,1025.05
2018-09-27T03:37:07.338Z,1025.05
2018-09-27T03:38:07.286Z,1025.02
2018-09-27T03:39:07.243Z,1025.06
2018-09-27T03:40:07.321Z,1025.07
2018-09-27T03:41:07.142Z,1025.05
2018-09-27T03:42:07.105Z,1025.06
2018-09-27T03:43:07.103Z,1025.07
2018-09-27T03:44:07.065Z,1025.03
2018-09-27T03:45:07.000Z,1025.02
2018-09-27T03:46:06.946Z,1025.00
2018-09-27T03:47:06.924Z,1024.98
2018-09-27T03:48:06.919Z,1024.96
2018-09-27T03:49:06.848Z,1024.91
2018-09-27T03:50:06.773Z,1024.90
2018-09-27T03:51:06.731Z,1024.90
2018-09-27T03:52:06.708Z,1024.89
2018-09-27T03:53:06.640Z,1024.87
2018-09-27T03:54:06.625Z,1024.88
2018-09-27T03:55:06.572Z,1024.89
2018-09-27T03:56:06.522Z,1024.87
2018-09-27T03:57:06.485Z,1024.86
2018-09-27T03:58:06.472Z,1024.88
2018-09-27T03:59:06.421Z,1024.84
2018-09-27T04:00:06.361Z,1024.81
2018-09-27T04:01:06.303Z,1024.81
2018-09-27T04:02:06.272Z,1024.78
2018-09-27T04:03:06.242Z,1024.81
2018-09-27T04:04:06.216Z,1024.79
2018-09-27T04:05:06.144Z,1024.80
2018-09-27T04:06:06.098Z,1024.77
2018-09-27T04:07:06.084Z,1024.77
2018-09-27T04:08:06.028Z,1024.75
2018-09-27T04:09:06.015Z,1024.72
2018-09-27T04:10:05.942Z,1024.75
2018-09-27T04:11:05.888Z,1024.74
2018-09-27T04:12:05.843Z,1024.76
2018-09-27T04:13:05.819Z,1024.78
2018-09-27T04:14:05.782Z,1024.83
2018-09-27T04:15:05.708Z,1024.78
2018-09-27T04:16:05.680Z,1024.81
2018-09-27T04:17:05.645Z,1024.76
2018-09-27T04:18:05.594Z,1024.77
2018-09-27T04:19:05.599Z,1024.78
2018-09-27T04:20:05.509Z,1024.74
2018-09-27T04:21:05.490Z,1024.72
2018-09-27T04:22:05.447Z,1024.74
2018-09-27T04:23:05.427Z,1024.74
2018-09-27T04:24:05.415Z,1024.82
2018-09-27T04:25:05.306Z,1024.81
2018-09-27T04:26:05.282Z,1024.79
2018-09-27T04:27:05.208Z,1024.78
2018-09-27T04:28:05.218Z,1024.75
2018-09-27T04:29:05.139Z,1024.74
2018-09-27T04:30:05.093Z,1024.72
2018-09-27T04:31:05.056Z,1024.71
2018-09-27T04:32:05.017Z,1024.74
2018-09-27T04:33:04.990Z,1024.73
2018-09-27T04:34:04.942Z,1024.73
2018-09-27T04:35:04.877Z,1024.74
2018-09-27T04:36:04.879Z,1024.77
2018-09-27T04:37:04.809Z,1024.76
2018-09-27T04:38:04.781Z,1024.73
2018-09-27T04:39:04.712Z,1024.77
2018-09-27T04:40:04.689Z,1024.76
2018-09-27T04:41:04.702Z,1024.76
2018-09-27T04:42:04.600Z,1024.77
2018-09-27T04:43:04.620Z,1024.77
2018-09-27T04:44:04.513Z,1024.77
2018-09-27T04:45:04.447Z,1024.73
2018-09-27T04:46:04.431Z,1024.76
2018-09-27T04:47:04.371Z,1024.76
2018-09-27T04:48:04.362Z,1024.72
2018-09-27T04:49:04.332Z,1024.73
2018-09-27T04:50:04.264Z,1024.72
2018-09-27T04:51:04.221Z,1024.74
2018-09-27T04:52:04.161Z,1024.75
2018-09-27T04:53:04.181Z,1024.76
2018-09-27T04:54:04.097Z,1024.75
2018-09-27T04:55:04.045Z,1024.76
2018-09-27T04:56:04.038Z,1024.72
2018-09-27T04:57:03.974Z,1024.77
2018-09-27T04:58:03.938Z,1024.74
2018-09-27T04:59:03.883Z,1024.77
2018-09-27T05:00:03.871Z,1024.78
2018-09-27T05:01:03.810Z,1024.78
2018-09-27T05:02:03.768Z,1024.78
2018-09-27T05:03:03.728Z,1024.77
2018-09-27T05:04:03.674Z,1024.74
2018-09-27T05:05:03.616Z,1024.76
2018-09-27T05:06:03.581Z,1024.78
2018-09-27T05:07:03.543Z,1024.73
2018-09-27T05:08:03.532Z,1024.74
2018-09-27T05:09:03.456Z,1024.77
2018-09-27T05:10:03.422Z,1024.77
2018-09-27T05:11:03.368Z,1024.74
2018-09-27T05:12:03.347Z,1024.77
2018-09-27T05:13:03.319Z,1024.74
2018-09-27T05:14:03.235Z,1024.75
2018-09-27T05:15:03.234Z,1024.73
2018-09-27T05:16:03.183Z,1024.73
2018-09-27T05:17:03.125Z,1024.73
2018-09-27T05:18:03.074Z,1024.74
2018-09-27T05:19:03.029Z,1024.75
2018-09-27T05:20:02.996Z,1024.70
2018-09-27T05:21:02.935Z,1024.71
2018-09-27T05:22:02.942Z,1024.67
2018-09-27T05:23:02.893Z,1024.65
2018-09-27T05:24:02.814Z,1024.61
2018-09-27T05:25:02.765Z,1024.61
2018-09-27T05:26:02.720Z,1024.62
2018-09-27T05:27:02.757Z,1024.58
2018-09-27T05:28:02.632Z,1024.58
2018-09-27T05:29:02.597Z,1024.59
2018-09-27T05:30:02.556Z,1024.61
2018-09-27T05:31:02.508Z,1024.58
2018-09-27T05:32:02.490Z,1024.60
2018-09-27T05:33:02.453Z,1024.57
2018-09-27T05:34:02.393Z,1024.59
2018-09-27T05:35:02.352Z,1024.61
2018-09-27T05:36:02.304Z,1024.56
2018-09-27T05:37:02.284Z,1024.58
2018-09-27T05:38:02.232Z,1024.64
2018-09-27T05:39:02.179Z,1024.58
2018-09-27T05:40:02.136Z,1024.57
2018-09-27T05:41:02.083Z,1024.61
2018-09-27T05:42:02.074Z,1024.58
2018-09-27T05:43:02.003Z,1024.56
2018-09-27T05:44:01.966Z,1024.58
2018-09-27T05:45:01.957Z,1024.56
2018-09-27T05:46:01.871Z,1024.53
2018-09-27T05:47:01.860Z,1024.53
2018-09-27T05:48:01.795Z,1024.54
2018-09-27T05:49:01.746Z,1024.51
2018-09-27T05:50:01.714Z,1024.50
2018-09-27T05:51:01.669Z,1024.47
2018-09-27T05:52:01.677Z,1024.47
2018-09-27T05:53:01.626Z,1024.50
2018-09-27T05:54:01.575Z,1024.46
2018-09-27T05:55:01.501Z,1024.50
2018-09-27T05:56:01.500Z,1024.50
2018-09-27T05:57:01.406Z,1024.54
2018-09-27T05:58:01.369Z,1024.51
2018-09-27T05:59:01.354Z,1024.53
2018-09-27T06:00:01.274Z,1024.50
2018-09-27T06:01:01.260Z,1024.54
2018-09-27T06:02:01.228Z,1024.52
2018-09-27T06:03:01.159Z,1024.53
2018-09-27T06:04:01.106Z,1024.57
2018-09-27T06:05:01.091Z,1024.55
2018-09-27T06:06:01.078Z,1024.58
2018-09-27T06:07:00.994Z,1024.52
2018-09-27T06:08:00.938Z,1024.53
2018-09-27T06:09:00.900Z,1024.52
2018-09-27T06:10:00.853Z,1024.54
2018-09-27T06:11:00.841Z,1024.57
2018-09-27T06:12:00.770Z,1024.57
2018-09-27T06:13:00.737Z,1024.58
2018-09-27T06:14:00.694Z,1024.60
2018-09-27T06:15:00.650Z,1024.57
2018-09-27T06:16:00.651Z,1024.58
2018-09-27T06:17:00.572Z,1024.64
2018-09-27T06:18:00.527Z,1024.66
2018-09-27T06:19:00.473Z,1024.64
2018-09-27T06:20:00.437Z,1024.67
2018-09-27T06:21:00.418Z,1024.68
2018-09-27T06:22:00.344Z,1024.68
2018-09-27T06:23:00.305Z,1024.70
2018-09-27T06:24:00.283Z,1024.67
2018-09-27T06:25:00.243Z,1024.69
2018-09-27T06:26:00.284Z,1024.72
2018-09-27T06:27:00.152Z,1024.73
2018-09-27T06:28:00.118Z,1024.73
2018-09-27T06:29:00.089Z,1024.74
2018-09-27T06:30:00.058Z,1024.77
2018-09-27T06:31:00.079Z,1024.75
2018-09-27T06:31:59.939Z,1024.80
2018-09-27T06:32:59.921Z,1024.77
2018-09-27T06:33:59.871Z,1024.82
2018-09-27T06:34:59.835Z,1024.80
2018-09-27T06:35:59.823Z,1024.76
2018-09-27T06:36:59.759Z,1024.78
2018-09-27T06:37:59.748Z,1024.79
2018-09-27T06:38:59.693Z,1024.80
2018-09-27T06:39:59.640Z,1024.80
2018-09-27T06:40:59.642Z,1024.80
2018-09-27T06:41:59.588Z,1024.77
2018-09-27T06:42:59.534Z,1024.76
2018-09-27T06:43:59.504Z,1024.79
2018-09-27T06:44:59.487Z,1024.77
2018-09-27T06:45:59.405Z,1024.79
2018-09-27T06:46:59.355Z,1024.80
2018-09-27T06:47:59.332Z,1024.79
2018-09-27T06:48:59.292Z,1024.81
2018-09-27T06:49:59.261Z,1024.80
2018-09-27T06:50:59.245Z,1024.82
2018-09-27T06:51:59.175Z,1024.84
2018-09-27T06:52:59.164Z,1024.82
2018-09-27T06:53:59.124Z,1024.83
2018-09-27T06:54:59.257Z,1024.84
2018-09-27T06:55:59.145Z,1024.85
2018-09-27T06:56:59.014Z,1024.83
2018-09-27T06:57:58.966Z,1024.81
2018-09-27T06:58:58.955Z,1024.81
2018-09-27T06:59:58.923Z,1024.87
2018-09-27T07:00:58.934Z,1024.87
2018-09-27T07:01:58.840Z,1024.92
2018-09-27T07:02:58.789Z,1024.89
2018-09-27T07:03:58.736Z,1024.88
2018-09-27T07:04:58.712Z,1024.94
2018-09-27T07:05:58.721Z,1024.93
2018-09-27T07:06:58.637Z,1024.92
2018-09-27T07:07:58.583Z,1024.92
2018-09-27T07:08:58.578Z,1024.91
2018-09-27T07:09:58.541Z,1024.84
2018-09-27T07:10:58.486Z,1024.89
2018-09-27T07:11:58.480Z,1024.93
2018-09-27T07:12:58.393Z,1025.06
2018-09-27T07:13:58.367Z,1025.08
2018-09-27T07:14:58.389Z,1025.10
2018-09-27T07:15:58.357Z,1025.07
2018-09-27T07:16:58.268Z,1025.07
2018-09-27T07:17:58.230Z,1025.06
2018-09-27T07:18:58.177Z,1025.04
2018-09-27T07:19:58.160Z,1025.04
2018-09-27T07:20:58.141Z,1025.02
2018-09-27T07:21:58.085Z,1025.04
2018-09-27T07:22:58.052Z,1025.03
2018-09-27T07:23:58.007Z,1025.05
2018-09-27T07:24:58.000Z,1025.06
2018-09-27T07:25:57.958Z,1025.06
2018-09-27T07:26:57.956Z,1025.11
2018-09-27T07:27:57.895Z,1025.13
2018-09-27T07:28:57.841Z,1025.10
2018-09-27T07:29:57.818Z,1025.12
2018-09-27T07:30:57.807Z,1025.12
2018-09-27T07:31:57.722Z,1025.09
2018-09-27T07:32:57.690Z,1025.11
2018-09-27T07:33:57.674Z,1025.13
2018-09-27T07:34:57.637Z,1025.15
2018-09-27T07:35:57.614Z,1025.19
2018-09-27T07:36:57.561Z,1025.19
2018-09-27T07:37:57.515Z,1025.23
2018-09-27T07:38:57.480Z,1025.21
2018-09-27T07:39:57.452Z,1025.28
2018-09-27T07:40:57.445Z,1025.26
2018-09-27T07:41:57.421Z,1025.33
2018-09-27T07:42:57.362Z,1025.36
2018-09-27T07:43:57.321Z,1025.42
2018-09-27T07:44:57.297Z,1025.50
2018-09-27T07:45:57.271Z,1025.55
2018-09-27T07:46:57.221Z,1025.67
2018-09-27T07:47:57.213Z,1025.74
2018-09-27T07:48:57.172Z,1025.90
2018-09-27T07:49:57.111Z,1026.07
2018-09-27T07:50:57.077Z,1026.22
2018-09-27T07:51:57.079Z,1026.34
2018-09-27T07:52:57.072Z,1026.47
2018-09-27T07:53:57.001Z,1026.46
2018-09-27T07:54:57.005Z,1026.47
2018-09-27T07:55:56.957Z,1026.42
2018-09-27T07:56:56.877Z,1026.48
2018-09-27T07:57:58.558Z,1026.47
2018-09-27T07:58:56.824Z,1026.52
2018-09-27T07:59:56.833Z,1026.50
2018-09-27T08:00:56.787Z,1026.56
2018-09-27T08:01:56.725Z,1026.63
2018-09-27T08:02:56.770Z,1026.73
2018-09-27T08:03:56.708Z,1026.74
2018-09-27T08:04:56.620Z,1026.73
2018-09-27T08:05:56.572Z,1026.60
2018-09-27T08:06:56.546Z,1026.44
2018-09-27T08:07:56.531Z,1026.31
2018-09-27T08:08:56.463Z,1026.17
2018-09-27T08:09:56.446Z,1026.03
2018-09-27T08:10:56.464Z,1025.98
2018-09-27T08:11:56.451Z,1025.94
2018-09-27T08:12:56.362Z,1025.88
2018-09-27T08:13:56.363Z,1025.90
2018-09-27T08:14:56.276Z,1025.78
2018-09-27T08:15:56.235Z,1025.75
2018-09-27T08:16:56.252Z,1025.72
2018-09-27T08:17:56.179Z,1025.70
2018-09-27T08:18:56.170Z,1025.64
2018-09-27T08:19:56.128Z,1025.66
2018-09-27T08:20:56.139Z,1025.63
2018-09-27T08:21:56.048Z,1025.59
2018-09-27T08:22:56.070Z,1025.57
2018-09-27T08:23:56.006Z,1025.57
2018-09-27T08:24:55.946Z,1025.60
2018-09-27T08:25:55.962Z,1025.61
2018-09-27T08:26:55.897Z,1025.62
2018-09-27T08:27:55.904Z,1025.60
2018-09-27T08:28:55.826Z,1025.60
2018-09-27T08:29:55.802Z,1025.60
2018-09-27T08:30:55.891Z,1025.61
2018-09-27T08:31:55.736Z,1025.60
2018-09-27T08:32:55.733Z,1025.63
2018-09-27T08:33:55.658Z,1025.64
2018-09-27T08:34:55.622Z,1025.62
2018-09-27T08:35:55.591Z,1025.65
2018-09-27T08:36:55.545Z,1025.71
2018-09-27T08:37:55.545Z,1025.66
2018-09-27T08:38:55.485Z,1025.69
2018-09-27T08:39:55.456Z,1025.66
2018-09-27T08:40:55.471Z,1025.72
2018-09-27T08:41:55.388Z,1025.69
2018-09-27T08:42:55.371Z,1025.72
2018-09-27T08:44:05.700Z,1025.70
2018-09-27T08:44:55.450Z,1025.75
2018-09-27T08:45:55.296Z,1025.71
2018-09-27T08:46:55.216Z,1025.76
2018-09-27T08:47:55.225Z,1025.75
2018-09-27T08:48:55.167Z,1025.76
2018-09-27T08:49:55.131Z,1025.70
2018-09-27T08:50:55.085Z,1025.66
2018-09-27T08:51:55.044Z,1025.68
2018-09-27T08:52:55.046Z,1025.71
2018-09-27T08:53:54.990Z,1025.61
2018-09-27T08:54:55.015Z,1025.60
2018-09-27T08:55:55.036Z,1025.57
2018-09-27T08:56:54.899Z,1025.60
2018-09-27T08:57:54.985Z,1025.55
2018-09-27T08:58:54.818Z,1025.53
2018-09-27T08:59:54.791Z,1025.52
2018-09-27T09:00:54.753Z,1025.45
2018-09-27T09:01:54.727Z,1025.36
2018-09-27T09:02:54.735Z,1025.34
2018-09-27T09:03:54.759Z,1025.28
2018-09-27T09:04:54.638Z,1025.25
2018-09-27T09:05:54.594Z,1025.15
2018-09-27T09:06:54.588Z,1025.06
2018-09-27T09:07:54.540Z,1025.01
2018-09-27T09:08:54.509Z,1024.96
2018-09-27T09:09:54.466Z,1024.87
2018-09-27T09:10:54.451Z,1024.87
2018-09-27T09:11:54.440Z,1024.83
2018-09-27T09:12:54.374Z,1024.80
2018-09-27T09:13:54.353Z,1024.76
2018-09-27T09:14:54.332Z,1024.70
2018-09-27T09:15:54.304Z,1024.64
2018-09-27T09:16:54.300Z,1024.61
2018-09-27T09:17:54.230Z,1024.59
2018-09-27T09:18:54.184Z,1024.53
2018-09-27T09:19:54.166Z,1024.50
2018-09-27T09:20:54.130Z,1024.44
2018-09-27T09:21:54.155Z,1024.44
2018-09-27T09:22:54.085Z,1024.36
2018-09-27T09:23:54.050Z,1024.38
2018-09-27T09:24:54.006Z,1024.38
2018-09-27T09:25:53.986Z,1024.37
2018-09-27T09:26:53.999Z,1024.34
2018-09-27T09:27:53.924Z,1024.35
2018-09-27T09:28:53.883Z,1024.32
2018-09-27T09:29:53.889Z,1024.29
2018-09-27T09:31:05.180Z,1024.35
2018-09-27T09:31:54.526Z,1024.29
2018-09-27T09:32:53.775Z,1024.30
2018-09-27T09:33:53.741Z,1024.27
2018-09-27T09:34:53.698Z,1024.24
2018-09-27T09:35:53.682Z,1024.22
2018-09-27T09:36:53.679Z,1024.23
2018-09-27T09:37:53.876Z,1024.23
2018-09-27T09:38:53.578Z,1024.24
2018-09-27T09:39:53.536Z,1024.22
2018-09-27T09:40:53.510Z,1024.26
2018-09-27T09:41:53.499Z,1024.25
2018-09-27T09:42:53.444Z,1024.21
2018-09-27T09:43:53.413Z,1024.18
2018-09-27T09:44:53.389Z,1024.16
2018-09-27T09:45:53.359Z,1024.19
2018-09-27T09:46:53.350Z,1024.20
2018-09-27T09:47:53.295Z,1024.17
2018-09-27T09:48:53.268Z,1024.18
2018-09-27T09:49:53.268Z,1024.15
2018-09-27T09:50:53.224Z,1024.13
2018-09-27T09:51:53.178Z,1024.09
2018-09-27T09:52:53.148Z,1024.11
2018-09-27T09:54:04.240Z,1024.05
2018-09-27T09:54:53.088Z,1024.04
2018-09-27T09:55:53.075Z,1024.01
2018-09-27T09:56:53.020Z,1024.03
2018-09-27T09:57:52.995Z,1024.03
2018-09-27T09:58:52.955Z,1023.99
2018-09-27T09:59:52.963Z,1023.96
2018-09-27T10:00:52.934Z,1023.94
2018-09-27T10:01:52.883Z,1023.92
2018-09-27T10:02:53.646Z,1023.90
2018-09-27T10:03:52.814Z,1023.94
2018-09-27T10:04:52.783Z,1023.90
2018-09-27T10:05:52.768Z,1023.88
2018-09-27T10:06:52.717Z,1023.85
2018-09-27T10:07:52.695Z,1023.87
2018-09-27T10:08:52.676Z,1023.84
2018-09-27T10:09:52.623Z,1023.88
2018-09-27T10:10:52.613Z,1023.83
2018-09-27T10:11:52.567Z,1023.82
2018-09-27T10:12:52.533Z,1023.81
2018-09-27T10:13:52.522Z,1023.78
2018-09-27T10:14:52.486Z,1023.80
2018-09-27T10:15:52.475Z,1023.78
2018-09-27T10:16:52.443Z,1023.72
2018-09-27T10:17:52.470Z,1023.70
2018-09-27T10:18:52.356Z,1023.68
2018-09-27T10:19:52.328Z,1023.66
2018-09-27T10:20:52.332Z,1023.63
2018-09-27T10:21:52.393Z,1023.66
2018-09-27T10:22:52.249Z,1023.63
2018-09-27T10:23:52.299Z,1023.60
2018-09-27T10:24:52.196Z,1023.62
2018-09-27T10:25:52.256Z,1023.60
2018-09-27T10:26:52.154Z,1023.57
2018-09-27T10:27:52.113Z,1023.54
2018-09-27T10:28:52.064Z,1023.52
2018-09-27T10:29:52.045Z,1023.54
2018-09-27T10:30:52.037Z,1023.52
2018-09-27T10:31:51.977Z,1023.53
2018-09-27T10:32:51.947Z,1023.54
2018-09-27T10:33:51.956Z,1023.48
2018-09-27T10:34:51.919Z,1023.47
2018-09-27T10:35:51.894Z,1023.50
2018-09-27T10:36:51.835Z,1023.47
2018-09-27T10:37:51.783Z,1023.45
2018-09-27T10:38:51.770Z,1023.46
2018-09-27T10:39:51.760Z,1023.42
2018-09-27T10:40:51.704Z,1023.39
2018-09-27T10:41:51.684Z,1023.40
2018-09-27T10:42:51.638Z,1023.36
2018-09-27T10:43:51.606Z,1023.35
2018-09-27T10:44:51.634Z,1023.31
2018-09-27T10:45:51.594Z,1023.32
2018-09-27T10:46:51.522Z,1023.29
2018-09-27T10:47:51.503Z,1023.29
2018-09-27T10:48:51.472Z,1023.27
2018-09-27T10:49:51.460Z,1023.22
2018-09-27T10:50:51.403Z,1023.23
2018-09-27T10:51:51.374Z,1023.25
2018-09-27T10:52:51.378Z,1023.25
2018-09-27T10:53:51.332Z,1023.25
2018-09-27T10:54:51.315Z,1023.27
2018-09-27T10:55:51.278Z,1023.25
2018-09-27T10:56:51.226Z,1023.25
2018-09-27T10:57:51.203Z,1023.24
2018-09-27T10:58:51.188Z,1023.23
2018-09-27T10:59:51.190Z,1023.25
2018-09-27T11:00:51.141Z,1023.22
2018-09-27T11:01:51.082Z,1023.20
2018-09-27T11:02:51.063Z,1023.20
2018-09-27T11:03:51.039Z,1023.22
2018-09-27T11:04:51.021Z,1023.14
2018-09-27T11:05:50.991Z,1023.16
2018-09-27T11:06:50.936Z,1023.14
2018-09-27T11:07:50.907Z,1023.12
2018-09-27T11:08:50.903Z,1023.12
2018-09-27T11:09:50.889Z,1023.13
2018-09-27T11:10:50.828Z,1023.14
2018-09-27T11:11:50.792Z,1023.14
2018-09-27T11:12:50.774Z,1023.12
2018-09-27T11:13:50.725Z,1023.09
2018-09-27T11:14:50.717Z,1023.09
2018-09-27T11:15:50.672Z,1023.05
2018-09-27T11:16:50.635Z,1023.00
2018-09-27T11:17:50.611Z,1023.02
2018-09-27T11:18:50.585Z,1022.99
2018-09-27T11:19:50.581Z,1022.99
2018-09-27T11:20:50.548Z,1022.96
2018-09-27T11:21:50.506Z,1022.91
2018-09-27T11:22:50.468Z,1022.88
2018-09-27T11:23:50.464Z,1022.89
2018-09-27T11:24:50.412Z,1022.87
2018-09-27T11:25:50.401Z,1022.82
2018-09-27T11:26:50.346Z,1022.81
2018-09-27T11:27:50.317Z,1022.81
2018-09-27T11:28:50.333Z,1022.79
2018-09-27T11:29:50.275Z,1022.77
2018-09-27T11:30:50.243Z,1022.73
2018-09-27T11:31:50.205Z,1022.69
2018-09-27T11:32:50.217Z,1022.73
2018-09-27T11:33:50.154Z,1022.71
2018-09-27T11:34:50.158Z,1022.71
2018-09-27T11:35:50.078Z,1022.74
2018-09-27T11:36:50.051Z,1022.72
2018-09-27T11:37:50.048Z,1022.72
2018-09-27T11:38:50.034Z,1022.70
2018-09-27T11:39:49.974Z,1022.72
2018-09-27T11:40:49.967Z,1022.65
2018-09-27T11:41:49.901Z,1022.66
2018-09-27T11:42:49.978Z,1022.58
2018-09-27T11:43:51.862Z,1022.59
2018-09-27T11:44:49.821Z,1022.54
2018-09-27T11:45:49.799Z,1022.38
2018-09-27T11:46:49.775Z,1022.19
2018-09-27T11:47:49.726Z,1022.12
2018-09-27T11:48:49.791Z,1022.07
2018-09-27T11:49:49.766Z,1022.08
2018-09-27T11:50:49.639Z,1022.04
2018-09-27T11:51:49.634Z,1021.98
2018-09-27T11:52:49.588Z,1021.98
2018-09-27T11:53:49.569Z,1021.99
2018-09-27T11:54:49.664Z,1021.94
2018-09-27T11:55:49.495Z,1021.94
2018-09-27T11:56:49.459Z,1021.88
2018-09-27T11:57:49.489Z,1021.91
2018-09-27T11:58:49.430Z,1021.88
2018-09-27T11:59:49.381Z,1021.85
2018-09-27T12:00:49.343Z,1021.77
2018-09-27T12:01:49.323Z,1021.77
2018-09-27T12:02:49.290Z,1021.74
2018-09-27T12:03:49.283Z,1021.69
2018-09-27T12:04:49.230Z,1021.66